Kailua-Kona, HI

3:59 AM HST on February 10, 2016 (GMT -1000)
NEPP | | Change Station
CLOSE
Current Station
Personal Weather Station
Location: Waikoloa, HI
Elevation: 5385 ft
Nearby Weather Stations

Elev 5385 ft 19.67 °N, 155.71 °W | Updated 22 days ago

Clear
Clear
44 °F
Feels Like 42 °F
N
5
Wind Variable Wind from SSW
Gusts mph

Today
High -- | Low -- °F
--% Chance of Precip.
Yesterday
High -- | Low -- °F
Precip. -- in
Pressure 30.02 in
Visibility 10.0 miles
Clouds Clear
Windchill 42 °F
Dew Point 23 °F
Humidity 43%
Rainfall in
Snow Depth Not available.
6:54 AM 6:19 PM
Waxing Crescent, 5% visible
METAR PHSF 101356Z AUTO 13004KT 10SM CLR 04/M09 A3029 RMK AO2 SLP165 T00411092 $
Pressure 30.02 in
Visibility 10.0 miles
Clouds Clear
Windchill 42 °F
Dew Point 23 °F
Humidity 43%
Rainfall in
Snow Depth Not available.
6:54 AM 6:19 PM
Waxing Crescent, 5% visible
METAR PHSF 101356Z AUTO 13004KT 10SM CLR 04/M09 A3029 RMK AO2 SLP165 T00411092 $

10-Day Weather Forecast

Almanac

Astronomy

Feb. 10, 2016 Rise Set
Actual Time
Civil Twilight
Nautical Twilight
Astronomical Twilight
Moon
Length of Visible Light
Length of Day
Tomorrow will be .
, % of the Moon is Illuminated

Today's Extremes

State Highs State Lows

Community

WunderPhotos

Upload Photos

1,891,845 photos uploaded!

WunderBlog® & News

Nearby

Air Quality

  Air Quality AQ Index Pollutant
Not available.

Snow Depth

Station Depth Elevation

Earthquake Activity

City Distance Mag. Time & Date
Minimum magnitude displayed is 2.5.

Coastal Water Temperatures

Place Temperature

Stations

Nearby Weather Stations

Station Location Temp. Windchill Dew Point Humidity Wind Precip. Elev Updated Type
                   

Watches & Warnings

There are currently no watches in effect.